sensor_id;sensor_type;location;lat;lon;timestamp;pressure;altitude;pressure_sealevel;temperature;humidity
20079;BME280;10199;48.850;8.924;2024-01-25T00:01:45;98216.09;;;7.13;82.09
20079;BME280;10199;48.850;8.924;2024-01-25T00:04:35;98286.16;;;7.68;81.96
20079;BME280;10199;48.850;8.924;2024-01-25T00:07:08;98141.06;;;6.81;82.43
20079;BME280;10199;48.850;8.924;2024-01-25T00:09:38;98108.63;;;6.63;81.47
20079;BME280;10199;48.850;8.924;2024-01-25T00:12:18;97987.22;;;5.85;81.71
20079;BME280;10199;48.850;8.924;2024-01-25T00:14:51;98167.53;;;7.07;81.91
20079;BME280;10199;48.850;8.924;2024-01-25T00:17:25;98369.69;;;8.31;82.27
20079;BME280;10199;48.850;8.924;2024-01-25T00:19:53;98284.59;;;7.76;82.50
20079;BME280;10199;48.850;8.924;2024-01-25T00:22:22;98064.47;;;6.39;82.67
20079;BME280;10199;48.850;8.924;2024-01-25T00:24:54;97997.44;;;5.98;82.56
20079;BME280;10199;48.850;8.924;2024-01-25T00:27:28;98113.41;;;6.77;82.30
20079;BME280;10199;48.850;8.924;2024-01-25T00:30:08;97787.44;;;4.40;82.23
20079;BME280;10199;48.850;8.924;2024-01-25T00:32:39;97704.75;;;4.28;82.00
20079;BME280;10199;48.850;8.924;2024-01-25T00:35:33;98373.25;;;8.40;83.44
20079;BME280;10199;48.850;8.924;2024-01-25T00:38:05;97807.00;;;4.45;82.56
20079;BME280;10199;48.850;8.924;2024-01-25T00:40:34;98313.78;;;7.92;83.47
20079;BME280;10199;48.850;8.924;2024-01-25T00:43:03;98395.03;;;8.42;82.96
20079;BME280;10199;48.850;8.924;2024-01-25T00:45:33;97982.59;;;5.60;83.23
20079;BME280;10199;48.850;8.924;2024-01-25T00:48:04;98095.88;;;6.68;83.66
20079;BME280;10199;48.850;8.924;2024-01-25T00:50:35;97993.38;;;6.13;84.20
20079;BME280;10199;48.850;8.924;2024-01-25T00:53:04;97937.69;;;5.72;84.18
20079;BME280;10199;48.850;8.924;2024-01-25T00:55:40;98067.09;;;6.39;83.95
20079;BME280;10199;48.850;8.924;2024-01-25T00:58:16;98378.22;;;8.43;84.05
20079;BME280;10199;48.850;8.924;2024-01-25T01:00:45;98377.53;;;8.41;84.12
20079;BME280;10199;48.850;8.924;2024-01-25T01:03:30;97708.59;;;4.33;83.54
20079;BME280;10199;48.850;8.924;2024-01-25T01:06:09;98328.56;;;8.20;84.14
20079;BME280;10199;48.850;8.924;2024-01-25T01:08:46;97968.16;;;5.93;82.97
20079;BME280;10199;48.850;8.924;2024-01-25T01:11:14;98127.59;;;6.57;83.68
20079;BME280;10199;48.850;8.924;2024-01-25T01:13:42;98257.28;;;7.77;83.49
20079;BME280;10199;48.850;8.924;2024-01-25T01:16:13;98315.03;;;7.60;84.13
20079;BME280;10199;48.850;8.924;2024-01-25T01:18:43;98389.75;;;8.42;83.86
20079;BME280;10199;48.850;8.924;2024-01-25T01:21:12;97958.63;;;5.92;83.66
20079;BME280;10199;48.850;8.924;2024-01-25T01:23:40;98341.72;;;8.20;83.68
20079;BME280;10199;48.850;8.924;2024-01-25T01:26:09;97994.88;;;5.69;83.94
20079;BME280;10199;48.850;8.924;2024-01-25T01:28:39;98104.50;;;6.23;83.37
20079;BME280;10199;48.850;8.924;2024-01-25T01:31:08;98087.78;;;6.79;83.23
20079;BME280;10199;48.850;8.924;2024-01-25T01:33:36;98014.25;;;6.15;83.22
20079;BME280;10199;48.850;8.924;2024-01-25T01:36:14;98238.44;;;7.54;83.22
20079;BME280;10199;48.850;8.924;2024-01-25T01:38:49;97831.13;;;4.59;82.58
20079;BME280;10199;48.850;8.924;2024-01-25T01:41:21;98127.38;;;6.78;83.00
20079;BME280;10199;48.850;8.924;2024-01-25T01:43:53;97829.78;;;5.01;81.97
20079;BME280;10199;48.850;8.924;2024-01-25T01:46:33;97703.97;;;3.89;81.92
20079;BME280;10199;48.850;8.924;2024-01-25T01:49:02;98207.13;;;7.33;82.40
20079;BME280;10199;48.850;8.924;2024-01-25T01:51:34;98257.69;;;7.54;82.21
20079;BME280;10199;48.850;8.924;2024-01-25T01:54:03;98391.66;;;8.22;82.83
20079;BME280;10199;48.850;8.924;2024-01-25T01:56:35;98012.94;;;5.91;82.50
20079;BME280;10199;48.850;8.924;2024-01-25T01:59:04;98346.69;;;8.23;83.25
20079;BME280;10199;48.850;8.924;2024-01-25T02:01:35;98249.59;;;7.65;82.73
20079;BME280;10199;48.850;8.924;2024-01-25T02:04:07;98000.16;;;6.16;82.32
20079;BME280;10199;48.850;8.924;2024-01-25T02:06:46;97678.50;;;3.71;82.52
20079;BME280;10199;48.850;8.924;2024-01-25T02:09:22;97989.16;;;5.93;82.74
20079;BME280;10199;48.850;8.924;2024-01-25T02:12:02;98036.63;;;6.19;82.71
20079;BME280;10199;48.850;8.924;2024-01-25T02:14:31;98282.47;;;7.89;83.28
20079;BME280;10199;48.850;8.924;2024-01-25T02:17:01;98259.78;;;7.78;83.00
20079;BME280;10199;48.850;8.924;2024-01-25T02:19:47;97680.78;;;4.23;82.41
20079;BME280;10199;48.850;8.924;2024-01-25T02:22:17;98238.56;;;7.34;82.79
20079;BME280;10199;48.850;8.924;2024-01-25T02:24:48;98034.31;;;6.43;82.49
20079;BME280;10199;48.850;8.924;2024-01-25T02:27:18;98326.38;;;8.16;81.95
20079;BME280;10199;48.850;8.924;2024-01-25T02:30:12;98333.59;;;8.14;82.46
20079;BME280;10199;48.850;8.924;2024-01-25T02:32:42;98346.91;;;8.12;82.94
20079;BME280;10199;48.850;8.924;2024-01-25T02:35:12;98334.34;;;8.06;83.11
20079;BME280;10199;48.850;8.924;2024-01-25T02:37:45;98214.53;;;7.20;83.10
20079;BME280;10199;48.850;8.924;2024-01-25T02:40:34;97932.34;;;5.55;82.55
20079;BME280;10199;48.850;8.924;2024-01-25T02:43:23;97805.75;;;4.59;82.45
20079;BME280;10199;48.850;8.924;2024-01-25T02:45:54;98285.28;;;7.50;83.45
20079;BME280;10199;48.850;8.924;2024-01-25T02:48:22;98360.84;;;8.05;83.69
20079;BME280;10199;48.850;8.924;2024-01-25T02:51:01;98069.97;;;6.46;83.29
20079;BME280;10199;48.850;8.924;2024-01-25T02:53:30;98120.66;;;6.28;83.20
20079;BME280;10199;48.850;8.924;2024-01-25T02:55:58;98303.81;;;7.86;83.75
20079;BME280;10199;48.850;8.924;2024-01-25T02:58:26;98007.81;;;5.90;83.56
20079;BME280;10199;48.850;8.924;2024-01-25T03:01:00;97807.81;;;4.56;83.42
20079;BME280;10199;48.850;8.924;2024-01-25T03:03:28;97934.22;;;5.25;83.93
20079;BME280;10199;48.850;8.924;2024-01-25T03:05:56;98337.56;;;8.00;83.09
20079;BME280;10199;48.850;8.924;2024-01-25T03:08:24;98037.06;;;6.04;83.46
20079;BME280;10199;48.850;8.924;2024-01-25T03:11:11;98224.38;;;7.18;83.55
20079;BME280;10199;48.850;8.924;2024-01-25T03:13:57;98096.00;;;6.39;83.87
20079;BME280;10199;48.850;8.924;2024-01-25T03:16:25;98343.88;;;7.89;84.13
20079;BME280;10199;48.850;8.924;2024-01-25T03:18:53;98086.38;;;6.30;83.89
20079;BME280;10199;48.850;8.924;2024-01-25T03:21:21;98346.81;;;7.86;83.94
20079;BME280;10199;48.850;8.924;2024-01-25T03:23:52;98317.66;;;7.60;83.45
20079;BME280;10199;48.850;8.924;2024-01-25T03:26:38;98002.66;;;5.51;83.65
20079;BME280;10199;48.850;8.924;2024-01-25T03:29:09;97999.50;;;5.19;83.15
20079;BME280;10199;48.850;8.924;2024-01-25T03:31:37;98427.47;;;7.87;83.16
20079;BME280;10199;48.850;8.924;2024-01-25T03:34:05;98195.03;;;6.76;83.69
20079;BME280;10199;48.850;8.924;2024-01-25T03:36:34;98375.91;;;7.85;83.63
20079;BME280;10199;48.850;8.924;2024-01-25T03:39:02;98316.38;;;7.37;83.85
20079;BME280;10199;48.850;8.924;2024-01-25T03:41:32;98293.94;;;7.06;83.67
20079;BME280;10199;48.850;8.924;2024-01-25T03:44:00;98139.19;;;6.27;84.10
20079;BME280;10199;48.850;8.924;2024-01-25T03:46:28;98392.41;;;7.77;84.03
20079;BME280;10199;48.850;8.924;2024-01-25T03:48:56;98393.53;;;7.75;84.48
20079;BME280;10199;48.850;8.924;2024-01-25T03:51:25;97728.88;;;3.73;83.87
20079;BME280;10199;48.850;8.924;2024-01-25T03:53:53;98458.53;;;7.84;83.77
20079;BME280;10199;48.850;8.924;2024-01-25T03:56:22;98209.44;;;6.15;84.08
20079;BME280;10199;48.850;8.924;2024-01-25T03:58:51;98397.88;;;7.66;85.23
20079;BME280;10199;48.850;8.924;2024-01-25T04:01:20;98404.22;;;7.73;84.05
20079;BME280;10199;48.850;8.924;2024-01-25T04:03:48;98153.31;;;6.16;83.58
20079;BME280;10199;48.850;8.924;2024-01-25T04:06:16;98413.09;;;7.72;84.26
20079;BME280;10199;48.850;8.924;2024-01-25T04:08:44;98043.81;;;5.41;84.40
20079;BME280;10199;48.850;8.924;2024-01-25T04:11:13;97698.09;;;3.27;83.92
20079;BME280;10199;48.850;8.924;2024-01-25T04:13:42;98193.66;;;6.25;84.52
20079;BME280;10199;48.850;8.924;2024-01-25T04:16:15;97801.72;;;3.78;84.01
20079;BME280;10199;48.850;8.924;2024-01-25T04:18:43;97726.19;;;3.35;84.30
20079;BME280;10199;48.850;8.924;2024-01-25T04:21:11;97642.34;;;2.58;83.55
20079;BME280;10199;48.850;8.924;2024-01-25T04:23:39;98177.66;;;6.09;83.67
20079;BME280;10199;48.850;8.924;2024-01-25T04:26:08;98101.78;;;5.57;83.83
20079;BME280;10199;48.850;8.924;2024-01-25T04:28:36;98394.78;;;7.43;84.15
20079;BME280;10199;48.850;8.924;2024-01-25T04:31:05;97807.88;;;3.27;83.25
20079;BME280;10199;48.850;8.924;2024-01-25T04:33:35;98477.22;;;7.24;84.00
20079;BME280;10199;48.850;8.924;2024-01-25T04:36:04;98420.13;;;7.44;84.67
20079;BME280;10199;48.850;8.924;2024-01-25T04:38:33;97979.34;;;4.71;84.87
20079;BME280;10199;48.850;8.924;2024-01-25T04:41:04;98441.16;;;7.44;84.43
20079;BME280;10199;48.850;8.924;2024-01-25T04:43:34;98025.66;;;4.61;83.99
20079;BME280;10199;48.850;8.924;2024-01-25T04:46:03;98246.00;;;5.88;84.23
20079;BME280;10199;48.850;8.924;2024-01-25T04:48:32;97843.41;;;3.60;83.53
20079;BME280;10199;48.850;8.924;2024-01-25T04:51:02;97847.94;;;3.28;83.42
20079;BME280;10199;48.850;8.924;2024-01-25T04:53:30;97878.44;;;3.48;83.95
20079;BME280;10199;48.850;8.924;2024-01-25T04:55:58;97974.81;;;4.23;83.76
20079;BME280;10199;48.850;8.924;2024-01-25T04:58:36;98542.59;;;7.29;84.29
20079;BME280;10199;48.850;8.924;2024-01-25T05:01:06;98272.63;;;6.23;82.74
20079;BME280;10199;48.850;8.924;2024-01-25T05:07:36;98255.19;;;5.34;83.39
20079;BME280;10199;48.850;8.924;2024-01-25T05:10:05;98375.34;;;6.20;84.04
20079;BME280;10199;48.850;8.924;2024-01-25T05:12:34;98457.53;;;6.51;84.38
20079;BME280;10199;48.850;8.924;2024-01-25T05:15:03;98131.50;;;4.48;83.61
20079;BME280;10199;48.850;8.924;2024-01-25T05:17:33;97778.63;;;2.51;83.09
20079;BME280;10199;48.850;8.924;2024-01-25T05:20:07;98195.41;;;4.97;84.09
20079;BME280;10199;48.850;8.924;2024-01-25T05:22:38;98571.59;;;6.79;84.42
20079;BME280;10199;48.850;8.924;2024-01-25T05:25:09;98277.53;;;5.28;84.60
20079;BME280;10199;48.850;8.924;2024-01-25T05:27:41;97983.84;;;3.07;85.23
20079;BME280;10199;48.850;8.924;2024-01-25T05:30:10;98378.31;;;5.66;85.70
20079;BME280;10199;48.850;8.924;2024-01-25T05:32:41;98051.78;;;3.39;86.22
20079;BME280;10199;48.850;8.924;2024-01-25T05:35:10;98451.56;;;6.39;86.66
20079;BME280;10199;48.850;8.924;2024-01-25T05:37:43;98318.72;;;5.47;86.81
20079;BME280;10199;48.850;8.924;2024-01-25T05:40:12;98216.16;;;4.49;86.93
20079;BME280;10199;48.850;8.924;2024-01-25T05:42:40;97855.66;;;2.46;87.02
20079;BME280;10199;48.850;8.924;2024-01-25T05:45:10;98087.47;;;3.61;87.45
20079;BME280;10199;48.850;8.924;2024-01-25T05:47:46;98167.09;;;3.89;88.28
20079;BME280;10199;48.850;8.924;2024-01-25T05:50:15;98071.31;;;3.76;88.27
20079;BME280;10199;48.850;8.924;2024-01-25T05:53:12;98494.84;;;6.35;89.73
20079;BME280;10199;48.850;8.924;2024-01-25T05:55:41;97977.00;;;2.74;89.61
20079;BME280;10199;48.850;8.924;2024-01-25T05:58:12;98293.22;;;4.98;90.13
20079;BME280;10199;48.850;8.924;2024-01-25T06:00:40;98485.00;;;6.28;90.82
20079;BME280;10199;48.850;8.924;2024-01-25T06:03:08;98236.97;;;4.71;91.21
20079;BME280;10199;48.850;8.924;2024-01-25T06:05:37;98476.25;;;6.18;91.54
20079;BME280;10199;48.850;8.924;2024-01-25T06:08:05;98102.31;;;3.60;90.87
20079;BME280;10199;48.850;8.924;2024-01-25T06:10:35;98220.91;;;4.34;91.27
20079;BME280;10199;48.850;8.924;2024-01-25T06:13:03;98380.38;;;5.62;90.97
20079;BME280;10199;48.850;8.924;2024-01-25T06:15:32;98489.66;;;6.15;91.49
20079;BME280;10199;48.850;8.924;2024-01-25T06:18:00;98345.00;;;5.26;91.93
20079;BME280;10199;48.850;8.924;2024-01-25T06:20:30;98173.44;;;4.07;91.36
20079;BME280;10199;48.850;8.924;2024-01-25T06:22:59;97761.72;;;1.50;91.42
20079;BME280;10199;48.850;8.924;2024-01-25T06:25:27;98300.59;;;4.83;92.08
20079;BME280;10199;48.850;8.924;2024-01-25T06:27:59;98496.06;;;6.01;92.29
20079;BME280;10199;48.850;8.924;2024-01-25T06:30:27;98341.31;;;4.87;91.64
20079;BME280;10199;48.850;8.924;2024-01-25T06:32:55;97914.03;;;2.13;92.22
20079;BME280;10199;48.850;8.924;2024-01-25T06:35:24;98451.75;;;5.56;92.30
20079;BME280;10199;48.850;8.924;2024-01-25T06:37:52;98415.44;;;5.10;92.20
20079;BME280;10199;48.850;8.924;2024-01-25T06:40:21;98398.75;;;5.32;92.84
20079;BME280;10199;48.850;8.924;2024-01-25T06:42:49;98378.66;;;5.21;92.35
20079;BME280;10199;48.850;8.924;2024-01-25T06:45:22;98136.47;;;3.59;92.50
20079;BME280;10199;48.850;8.924;2024-01-25T06:47:50;98383.19;;;4.98;92.56
20079;BME280;10199;48.850;8.924;2024-01-25T06:50:21;98023.34;;;2.38;92.31
20079;BME280;10199;48.850;8.924;2024-01-25T06:52:51;98248.53;;;4.27;92.18
20079;BME280;10199;48.850;8.924;2024-01-25T06:55:21;98537.97;;;5.82;91.96
20079;BME280;10199;48.850;8.924;2024-01-25T06:58:07;97969.94;;;2.42;91.70
20079;BME280;10199;48.850;8.924;2024-01-25T07:00:56;98090.25;;;3.16;91.76
20079;BME280;10199;48.850;8.924;2024-01-25T07:03:24;98237.78;;;4.09;92.08
20079;BME280;10199;48.850;8.924;2024-01-25T07:05:52;98519.66;;;5.91;92.48
20079;BME280;10199;48.850;8.924;2024-01-25T07:08:21;98083.84;;;2.77;91.27
20079;BME280;10199;48.850;8.924;2024-01-25T07:10:51;98122.72;;;3.02;91.69
20079;BME280;10199;48.850;8.924;2024-01-25T07:13:20;98317.56;;;4.58;91.53
20079;BME280;10199;48.850;8.924;2024-01-25T07:15:49;98096.78;;;2.67;91.85
20079;BME280;10199;48.850;8.924;2024-01-25T07:18:18;98239.78;;;4.17;91.09
20079;BME280;10199;48.850;8.924;2024-01-25T07:20:48;98425.41;;;5.16;91.24
20079;BME280;10199;48.850;8.924;2024-01-25T07:23:17;98188.63;;;3.92;90.57
20079;BME280;10199;48.850;8.924;2024-01-25T07:25:45;98167.75;;;3.49;90.51
20079;BME280;10199;48.850;8.924;2024-01-25T07:28:13;98373.53;;;4.78;90.30
20079;BME280;10199;48.850;8.924;2024-01-25T07:30:41;98211.69;;;4.19;89.13
20079;BME280;10199;48.850;8.924;2024-01-25T07:33:09;98436.38;;;5.21;88.74
20079;BME280;10199;48.850;8.924;2024-01-25T07:35:39;98120.03;;;4.40;85.17
20079;BME280;10199;48.850;8.924;2024-01-25T07:38:12;98532.63;;;7.03;84.75
20079;BME280;10199;48.850;8.924;2024-01-25T07:40:41;98539.13;;;7.38;83.59
20079;BME280;10199;48.850;8.924;2024-01-25T07:43:11;98447.41;;;6.47;82.29
20079;BME280;10199;48.850;8.924;2024-01-25T07:45:40;98245.03;;;5.69;81.46
20079;BME280;10199;48.850;8.924;2024-01-25T07:48:08;98305.72;;;6.82;78.33
20079;BME280;10199;48.850;8.924;2024-01-25T07:50:39;98323.56;;;7.08;77.23
20079;BME280;10199;48.850;8.924;2024-01-25T07:53:07;98220.78;;;6.16;76.36
20079;BME280;10199;48.850;8.924;2024-01-25T07:55:36;98357.09;;;7.70;75.76
20079;BME280;10199;48.850;8.924;2024-01-25T07:58:04;98545.97;;;8.99;75.21
20079;BME280;10199;48.850;8.924;2024-01-25T08:00:33;97854.66;;;4.30;76.10
20079;BME280;10199;48.850;8.924;2024-01-25T08:03:02;98273.09;;;6.75;76.66
20079;BME280;10199;48.850;8.924;2024-01-25T08:05:34;98231.31;;;7.19;74.49
20079;BME280;10199;48.850;8.924;2024-01-25T08:08:04;98155.81;;;6.92;73.97
20079;BME280;10199;48.850;8.924;2024-01-25T08:10:32;98367.91;;;8.49;72.47
20079;BME280;10199;48.850;8.924;2024-01-25T08:13:01;98298.50;;;8.13;71.31
20079;BME280;10199;48.850;8.924;2024-01-25T08:15:32;98500.47;;;9.84;70.02
20079;BME280;10199;48.850;8.924;2024-01-25T08:18:00;97968.94;;;6.58;70.15
20079;BME280;10199;48.850;8.924;2024-01-25T08:20:32;98073.97;;;7.05;70.22
20079;BME280;10199;48.850;8.924;2024-01-25T08:23:00;98399.03;;;8.99;70.45
20079;BME280;10199;48.850;8.924;2024-01-25T08:25:30;98296.25;;;8.54;70.55
20079;BME280;10199;48.850;8.924;2024-01-25T08:27:59;97879.59;;;6.58;69.20
20079;BME280;10199;48.850;8.924;2024-01-25T08:30:27;98310.19;;;8.64;70.17
20079;BME280;10199;48.850;8.924;2024-01-25T08:33:02;98276.72;;;8.82;69.49
20079;BME280;10199;48.850;8.924;2024-01-25T08:35:30;98268.47;;;8.42;71.25
20079;BME280;10199;48.850;8.924;2024-01-25T08:37:59;97938.47;;;7.00;68.47
20079;BME280;10199;48.850;8.924;2024-01-25T08:40:27;97907.66;;;7.11;68.34
20079;BME280;10199;48.850;8.924;2024-01-25T08:42:57;98125.38;;;8.83;67.23
20079;BME280;10199;48.850;8.924;2024-01-25T08:45:26;98033.91;;;8.24;67.58
20079;BME280;10199;48.850;8.924;2024-01-25T08:47:57;98145.59;;;8.49;67.69
20079;BME280;10199;48.850;8.924;2024-01-25T08:50:26;98241.31;;;9.61;66.51
20079;BME280;10199;48.850;8.924;2024-01-25T08:52:59;98505.84;;;11.59;64.97
20079;BME280;10199;48.850;8.924;2024-01-25T08:55:27;98215.16;;;10.33;63.59
20079;BME280;10199;48.850;8.924;2024-01-25T08:57:58;98380.84;;;10.66;65.02
20079;BME280;10199;48.850;8.924;2024-01-25T09:00:26;98070.97;;;8.22;64.05
20079;BME280;10199;48.850;8.924;2024-01-25T09:02:55;98532.47;;;12.15;63.57
20079;BME280;10199;48.850;8.924;2024-01-25T09:05:24;98236.34;;;10.41;61.56
20079;BME280;10199;48.850;8.924;2024-01-25T09:07:55;98437.28;;;11.56;62.78
20079;BME280;10199;48.850;8.924;2024-01-25T09:10:23;98555.34;;;12.24;62.14
20079;BME280;10199;48.850;8.924;2024-01-25T09:12:52;98417.88;;;10.58;63.49
20079;BME280;10199;48.850;8.924;2024-01-25T09:15:24;98216.28;;;8.97;63.38
20079;BME280;10199;48.850;8.924;2024-01-25T09:17:52;98419.53;;;10.59;62.97
20079;BME280;10199;48.850;8.924;2024-01-25T09:20:20;98560.78;;;10.66;66.66
20079;BME280;10199;48.850;8.924;2024-01-25T09:22:48;97913.44;;;6.43;66.19
20079;BME280;10199;48.850;8.924;2024-01-25T09:25:17;98416.09;;;9.56;66.70
20079;BME280;10199;48.850;8.924;2024-01-25T09:27:45;98389.31;;;8.64;68.81
20079;BME280;10199;48.850;8.924;2024-01-25T09:30:15;98333.34;;;8.35;66.45
20079;BME280;10199;48.850;8.924;2024-01-25T09:32:47;98187.75;;;6.69;70.74
20079;BME280;10199;48.850;8.924;2024-01-25T09:35:15;98169.28;;;6.79;70.14
20079;BME280;10199;48.850;8.924;2024-01-25T09:37:44;98575.84;;;9.17;71.69
20079;BME280;10199;48.850;8.924;2024-01-25T09:40:12;98319.94;;;7.09;72.70
20079;BME280;10199;48.850;8.924;2024-01-25T09:42:40;98462.94;;;7.93;73.44
20079;BME280;10199;48.850;8.924;2024-01-25T09:45:11;98538.72;;;8.83;73.23
20079;BME280;10199;48.850;8.924;2024-01-25T09:47:45;98589.22;;;9.69;71.74
20079;BME280;10199;48.850;8.924;2024-01-25T09:50:14;98364.19;;;7.32;73.65
20079;BME280;10199;48.850;8.924;2024-01-25T09:52:43;98364.38;;;7.58;74.12
20079;BME280;10199;48.850;8.924;2024-01-25T09:55:12;98310.50;;;7.80;72.65
20079;BME280;10199;48.850;8.924;2024-01-25T09:57:45;98465.09;;;8.07;75.03
20079;BME280;10199;48.850;8.924;2024-01-25T10:00:15;98243.28;;;7.31;72.88
20079;BME280;10199;48.850;8.924;2024-01-25T10:02:44;98449.13;;;7.72;73.52
20079;BME280;10199;48.850;8.924;2024-01-25T10:05:12;98599.75;;;9.33;73.61
20079;BME280;10199;48.850;8.924;2024-01-25T10:07:42;98352.88;;;8.14;72.87
20079;BME280;10199;48.850;8.924;2024-01-25T10:10:11;98461.47;;;8.45;74.19
20079;BME280;10199;48.850;8.924;2024-01-25T10:12:41;98547.97;;;8.69;76.25
20079;BME280;10199;48.850;8.924;2024-01-25T10:15:10;98359.94;;;7.22;76.26
20079;BME280;10199;48.850;8.924;2024-01-25T10:17:38;98283.63;;;6.65;75.45
20079;BME280;10199;48.850;8.924;2024-01-25T10:20:15;98201.38;;;6.46;75.12
20079;BME280;10199;48.850;8.924;2024-01-25T10:22:44;98133.41;;;5.85;74.60
20079;BME280;10199;48.850;8.924;2024-01-25T10:25:12;98064.94;;;5.30;76.41
20079;BME280;10199;48.850;8.924;2024-01-25T10:27:41;98142.13;;;5.95;75.55
20079;BME280;10199;48.850;8.924;2024-01-25T10:30:10;98464.22;;;7.89;76.47
20079;BME280;10199;48.850;8.924;2024-01-25T10:32:40;98524.94;;;8.24;76.46
20079;BME280;10199;48.850;8.924;2024-01-25T10:35:09;98408.69;;;8.27;74.24
20079;BME280;10199;48.850;8.924;2024-01-25T10:37:39;98582.38;;;8.95;76.10
20079;BME280;10199;48.850;8.924;2024-01-25T10:40:10;98586.84;;;8.67;75.85
20079;BME280;10199;48.850;8.924;2024-01-25T10:42:38;98482.97;;;7.66;75.73
20079;BME280;10199;48.850;8.924;2024-01-25T10:45:07;98448.41;;;8.16;74.24
20079;BME280;10199;48.850;8.924;2024-01-25T10:47:36;98293.38;;;6.92;74.31
20079;BME280;10199;48.850;8.924;2024-01-25T10:50:08;98140.06;;;5.60;75.55
20079;BME280;10199;48.850;8.924;2024-01-25T10:52:38;98134.66;;;5.61;75.32
20079;BME280;10199;48.850;8.924;2024-01-25T10:55:08;98407.72;;;8.01;75.76
20079;BME280;10199;48.850;8.924;2024-01-25T10:57:36;98363.03;;;7.82;75.70
20079;BME280;10199;48.850;8.924;2024-01-25T11:00:07;98241.00;;;7.18;74.01
20079;BME280;10199;48.850;8.924;2024-01-25T11:02:37;98262.66;;;7.02;74.20
20079;BME280;10199;48.850;8.924;2024-01-25T11:05:08;98169.88;;;6.73;75.28
20079;BME280;10199;48.850;8.924;2024-01-25T11:07:43;97920.03;;;4.99;74.19
20079;BME280;10199;48.850;8.924;2024-01-25T11:10:16;98446.84;;;8.51;74.42
20079;BME280;10199;48.850;8.924;2024-01-25T11:12:49;98461.69;;;8.79;74.67
20079;BME280;10199;48.850;8.924;2024-01-25T11:15:20;98503.81;;;8.89;74.97
20079;BME280;10199;48.850;8.924;2024-01-25T11:17:53;98239.78;;;7.40;73.57
20079;BME280;10199;48.850;8.924;2024-01-25T11:20:22;98084.78;;;5.90;72.10
20079;BME280;10199;48.850;8.924;2024-01-25T11:22:57;98581.94;;;9.17;72.27
20079;BME280;10199;48.850;8.924;2024-01-25T11:25:29;98541.84;;;9.93;70.74
20079;BME280;10199;48.850;8.924;2024-01-25T11:27:59;98209.28;;;7.65;70.32
20079;BME280;10199;48.850;8.924;2024-01-25T11:30:29;98360.91;;;8.76;71.04
20079;BME280;10199;48.850;8.924;2024-01-25T11:32:58;98243.72;;;7.54;70.15
20079;BME280;10199;48.850;8.924;2024-01-25T11:35:26;98293.25;;;8.13;69.47
20079;BME280;10199;48.850;8.924;2024-01-25T11:37:54;98424.09;;;9.47;68.67
20079;BME280;10199;48.850;8.924;2024-01-25T11:40:25;97987.59;;;7.61;67.78
20079;BME280;10199;48.850;8.924;2024-01-25T11:42:54;98087.31;;;8.00;66.39
20079;BME280;10199;48.850;8.924;2024-01-25T11:45:23;98351.47;;;9.69;67.23
20079;BME280;10199;48.850;8.924;2024-01-25T11:47:51;98253.16;;;9.15;66.39
20079;BME280;10199;48.850;8.924;2024-01-25T11:50:19;98399.75;;;9.87;66.92
20079;BME280;10199;48.850;8.924;2024-01-25T11:52:49;98368.38;;;9.92;64.12
20079;BME280;10199;48.850;8.924;2024-01-25T11:55:18;98523.88;;;11.31;64.42
20079;BME280;10199;48.850;8.924;2024-01-25T11:57:47;98210.13;;;9.73;63.65
20079;BME280;10199;48.850;8.924;2024-01-25T12:00:16;98438.94;;;11.41;62.38
20079;BME280;10199;48.850;8.924;2024-01-25T12:02:46;98388.63;;;10.68;62.88
20079;BME280;10199;48.850;8.924;2024-01-25T12:05:14;98134.75;;;9.28;62.81
20079;BME280;10199;48.850;8.924;2024-01-25T12:07:42;98237.28;;;9.07;63.94
20079;BME280;10199;48.850;8.924;2024-01-25T12:10:15;98392.75;;;10.12;64.38
20079;BME280;10199;48.850;8.924;2024-01-25T12:12:44;98392.91;;;10.10;65.21
20079;BME280;10199;48.850;8.924;2024-01-25T12:15:14;98106.84;;;8.41;64.14
20079;BME280;10199;48.850;8.924;2024-01-25T12:17:42;98555.47;;;11.25;63.63
20079;BME280;10199;48.850;8.924;2024-01-25T12:20:11;98332.69;;;9.80;62.89
20079;BME280;10199;48.850;8.924;2024-01-25T12:22:39;98482.09;;;10.76;64.04
20079;BME280;10199;48.850;8.924;2024-01-25T12:25:08;98324.94;;;10.45;62.04
20079;BME280;10199;48.850;8.924;2024-01-25T12:27:39;98271.91;;;9.80;62.53
20079;BME280;10199;48.850;8.924;2024-01-25T12:30:09;97899.16;;;7.77;62.66
20079;BME280;10199;48.850;8.924;2024-01-25T12:32:39;98448.38;;;11.11;62.58
20079;BME280;10199;48.850;8.924;2024-01-25T12:35:07;98272.91;;;9.79;62.55
20079;BME280;10199;48.850;8.924;2024-01-25T12:37:36;98314.69;;;10.42;62.55
20079;BME280;10199;48.850;8.924;2024-01-25T12:40:05;98263.00;;;9.81;63.19
20079;BME280;10199;48.850;8.924;2024-01-25T12:42:33;98457.81;;;11.13;62.00
20079;BME280;10199;48.850;8.924;2024-01-25T12:45:02;98442.88;;;10.64;62.34
20079;BME280;10199;48.850;8.924;2024-01-25T12:47:30;98336.53;;;9.94;63.54
20079;BME280;10199;48.850;8.924;2024-01-25T12:49:59;98235.94;;;9.45;62.83
20079;BME280;10199;48.850;8.924;2024-01-25T12:52:27;98308.91;;;9.88;64.07
20079;BME280;10199;48.850;8.924;2024-01-25T12:54:55;98160.28;;;9.11;63.95
20079;BME280;10199;48.850;8.924;2024-01-25T12:57:24;98304.31;;;9.98;63.46
20079;BME280;10199;48.850;8.924;2024-01-25T12:59:52;98147.94;;;8.52;64.48
20079;BME280;10199;48.850;8.924;2024-01-25T13:02:20;98450.19;;;10.86;63.60
20079;BME280;10199;48.850;8.924;2024-01-25T13:04:48;98444.22;;;10.92;65.17
20079;BME280;10199;48.850;8.924;2024-01-25T13:07:18;97919.91;;;7.80;65.36
20079;BME280;10199;48.850;8.924;2024-01-25T13:09:46;98432.97;;;11.23;63.72
20079;BME280;10199;48.850;8.924;2024-01-25T13:12:14;98195.38;;;9.04;65.82
20079;BME280;10199;48.850;8.924;2024-01-25T13:14:42;97985.66;;;8.23;64.76
20079;BME280;10199;48.850;8.924;2024-01-25T13:17:11;98185.88;;;10.10;63.96
20079;BME280;10199;48.850;8.924;2024-01-25T13:19:39;98227.56;;;10.24;62.59
20079;BME280;10199;48.850;8.924;2024-01-25T13:22:07;98241.50;;;9.68;63.29
20079;BME280;10199;48.850;8.924;2024-01-25T13:24:37;98285.72;;;9.66;63.24
20079;BME280;10199;48.850;8.924;2024-01-25T13:27:05;98200.72;;;9.78;62.62
20079;BME280;10199;48.850;8.924;2024-01-25T13:29:33;98301.44;;;10.26;63.84
20079;BME280;10199;48.850;8.924;2024-01-25T13:32:01;98077.34;;;8.72;64.72